sensor_id;sensor_type;location;lat;lon;timestamp;P1;durP1;ratioP1;P2;durP2;ratioP2
44810;SDS011;30526;52.184;4.476;2023-06-14T00:01:47;9.80;;;5.22;;
44810;SDS011;30526;52.184;4.476;2023-06-14T00:04:16;10.10;;;4.80;;
44810;SDS011;30526;52.184;4.476;2023-06-14T00:06:44;9.60;;;5.18;;
44810;SDS011;30526;52.184;4.476;2023-06-14T00:09:11;8.77;;;5.07;;
44810;SDS011;30526;52.184;4.476;2023-06-14T00:11:42;7.75;;;5.30;;
44810;SDS011;30526;52.184;4.476;2023-06-14T00:14:09;8.88;;;5.00;;
44810;SDS011;30526;52.184;4.476;2023-06-14T00:16:35;9.35;;;5.32;;
44810;SDS011;30526;52.184;4.476;2023-06-14T00:19:05;8.02;;;4.90;;
44810;SDS011;30526;52.184;4.476;2023-06-14T00:21:35;6.95;;;5.05;;
44810;SDS011;30526;52.184;4.476;2023-06-14T00:24:01;7.38;;;5.47;;
44810;SDS011;30526;52.184;4.476;2023-06-14T00:26:28;9.73;;;5.57;;
44810;SDS011;30526;52.184;4.476;2023-06-14T00:28:54;13.73;;;5.30;;
44810;SDS011;30526;52.184;4.476;2023-06-14T00:31:21;8.35;;;3.55;;
44810;SDS011;30526;52.184;4.476;2023-06-14T00:33:48;8.25;;;5.05;;
44810;SDS011;30526;52.184;4.476;2023-06-14T00:36:14;10.38;;;5.38;;
44810;SDS011;30526;52.184;4.476;2023-06-14T00:38:40;10.55;;;5.07;;
44810;SDS011;30526;52.184;4.476;2023-06-14T00:41:06;7.60;;;4.95;;
44810;SDS011;30526;52.184;4.476;2023-06-14T00:43:32;10.15;;;5.00;;
44810;SDS011;30526;52.184;4.476;2023-06-14T00:46:00;8.07;;;4.93;;
44810;SDS011;30526;52.184;4.476;2023-06-14T00:48:26;20.65;;;5.57;;
44810;SDS011;30526;52.184;4.476;2023-06-14T00:50:53;7.05;;;3.58;;
44810;SDS011;30526;52.184;4.476;2023-06-14T00:53:20;8.52;;;4.18;;
44810;SDS011;30526;52.184;4.476;2023-06-14T00:55:48;8.60;;;4.38;;
44810;SDS011;30526;52.184;4.476;2023-06-14T00:58:14;7.67;;;4.30;;
44810;SDS011;30526;52.184;4.476;2023-06-14T01:00:41;8.63;;;4.78;;
44810;SDS011;30526;52.184;4.476;2023-06-14T01:03:08;9.88;;;4.97;;
44810;SDS011;30526;52.184;4.476;2023-06-14T01:05:39;7.40;;;4.35;;
44810;SDS011;30526;52.184;4.476;2023-06-14T01:08:28;10.82;;;4.20;;
44810;SDS011;30526;52.184;4.476;2023-06-14T01:11:09;11.77;;;4.00;;
44810;SDS011;30526;52.184;4.476;2023-06-14T01:13:41;9.48;;;4.43;;
44810;SDS011;30526;52.184;4.476;2023-06-14T01:16:08;6.82;;;4.55;;
44810;SDS011;30526;52.184;4.476;2023-06-14T01:18:35;8.65;;;4.65;;
44810;SDS011;30526;52.184;4.476;2023-06-14T01:21:02;7.65;;;4.03;;
44810;SDS011;30526;52.184;4.476;2023-06-14T01:23:31;10.07;;;4.15;;
44810;SDS011;30526;52.184;4.476;2023-06-14T01:25:58;8.87;;;4.23;;
44810;SDS011;30526;52.184;4.476;2023-06-14T01:28:25;4.88;;;3.15;;
44810;SDS011;30526;52.184;4.476;2023-06-14T01:30:57;7.28;;;3.90;;
44810;SDS011;30526;52.184;4.476;2023-06-14T01:33:26;7.65;;;4.15;;
44810;SDS011;30526;52.184;4.476;2023-06-14T01:35:53;6.65;;;4.20;;
44810;SDS011;30526;52.184;4.476;2023-06-14T01:38:22;8.02;;;4.30;;
44810;SDS011;30526;52.184;4.476;2023-06-14T01:40:49;5.75;;;3.85;;
44810;SDS011;30526;52.184;4.476;2023-06-14T01:43:16;3.97;;;3.58;;
44810;SDS011;30526;52.184;4.476;2023-06-14T01:45:42;9.57;;;4.05;;
44810;SDS011;30526;52.184;4.476;2023-06-14T01:48:10;10.30;;;4.40;;
44810;SDS011;30526;52.184;4.476;2023-06-14T01:50:37;6.60;;;4.07;;
44810;SDS011;30526;52.184;4.476;2023-06-14T01:53:05;6.90;;;3.85;;
44810;SDS011;30526;52.184;4.476;2023-06-14T01:55:32;5.05;;;3.92;;
44810;SDS011;30526;52.184;4.476;2023-06-14T01:58:02;8.63;;;3.97;;
44810;SDS011;30526;52.184;4.476;2023-06-14T02:00:28;7.05;;;3.72;;
44810;SDS011;30526;52.184;4.476;2023-06-14T02:02:54;8.60;;;3.90;;
44810;SDS011;30526;52.184;4.476;2023-06-14T02:05:21;8.90;;;4.03;;
44810;SDS011;30526;52.184;4.476;2023-06-14T02:07:47;8.30;;;4.25;;
44810;SDS011;30526;52.184;4.476;2023-06-14T02:10:14;5.22;;;4.15;;
44810;SDS011;30526;52.184;4.476;2023-06-14T02:12:40;6.23;;;3.80;;
44810;SDS011;30526;52.184;4.476;2023-06-14T02:15:07;8.80;;;3.88;;
44810;SDS011;30526;52.184;4.476;2023-06-14T02:17:33;6.35;;;3.92;;
44810;SDS011;30526;52.184;4.476;2023-06-14T02:19:59;15.10;;;3.97;;
44810;SDS011;30526;52.184;4.476;2023-06-14T02:22:26;7.32;;;3.95;;
44810;SDS011;30526;52.184;4.476;2023-06-14T02:24:52;7.60;;;4.03;;
44810;SDS011;30526;52.184;4.476;2023-06-14T02:27:18;10.27;;;3.80;;
44810;SDS011;30526;52.184;4.476;2023-06-14T02:29:45;8.07;;;4.15;;
44810;SDS011;30526;52.184;4.476;2023-06-14T02:32:12;6.40;;;4.03;;
44810;SDS011;30526;52.184;4.476;2023-06-14T02:34:38;7.13;;;3.83;;
44810;SDS011;30526;52.184;4.476;2023-06-14T02:37:06;11.65;;;3.53;;
44810;SDS011;30526;52.184;4.476;2023-06-14T02:39:33;5.22;;;3.13;;
44810;SDS011;30526;52.184;4.476;2023-06-14T02:41:59;5.78;;;3.83;;
44810;SDS011;30526;52.184;4.476;2023-06-14T02:44:26;12.88;;;4.05;;
44810;SDS011;30526;52.184;4.476;2023-06-14T02:46:53;18.95;;;4.25;;
44810;SDS011;30526;52.184;4.476;2023-06-14T02:49:20;5.40;;;3.85;;
44810;SDS011;30526;52.184;4.476;2023-06-14T02:51:46;10.60;;;4.28;;
44810;SDS011;30526;52.184;4.476;2023-06-14T02:54:12;8.07;;;4.03;;
44810;SDS011;30526;52.184;4.476;2023-06-14T02:56:39;6.18;;;3.95;;
44810;SDS011;30526;52.184;4.476;2023-06-14T02:59:05;7.85;;;3.55;;
44810;SDS011;30526;52.184;4.476;2023-06-14T03:01:32;10.38;;;5.10;;
44810;SDS011;30526;52.184;4.476;2023-06-14T03:03:59;8.40;;;4.32;;
44810;SDS011;30526;52.184;4.476;2023-06-14T03:06:25;10.55;;;3.63;;
44810;SDS011;30526;52.184;4.476;2023-06-14T03:08:54;7.50;;;3.95;;
44810;SDS011;30526;52.184;4.476;2023-06-14T03:11:24;8.68;;;4.10;;
44810;SDS011;30526;52.184;4.476;2023-06-14T03:13:50;11.85;;;4.25;;
44810;SDS011;30526;52.184;4.476;2023-06-14T03:16:17;8.85;;;4.38;;
44810;SDS011;30526;52.184;4.476;2023-06-14T03:18:47;7.25;;;3.72;;
44810;SDS011;30526;52.184;4.476;2023-06-14T03:21:13;9.23;;;3.08;;
44810;SDS011;30526;52.184;4.476;2023-06-14T03:23:41;9.43;;;3.75;;
44810;SDS011;30526;52.184;4.476;2023-06-14T03:26:08;8.60;;;4.10;;
44810;SDS011;30526;52.184;4.476;2023-06-14T03:28:34;10.73;;;3.60;;
44810;SDS011;30526;52.184;4.476;2023-06-14T03:31:02;7.88;;;4.25;;
44810;SDS011;30526;52.184;4.476;2023-06-14T03:33:29;12.30;;;4.70;;
44810;SDS011;30526;52.184;4.476;2023-06-14T03:35:55;10.10;;;3.83;;
44810;SDS011;30526;52.184;4.476;2023-06-14T03:38:21;17.23;;;4.32;;
44810;SDS011;30526;52.184;4.476;2023-06-14T03:40:48;6.13;;;3.83;;
44810;SDS011;30526;52.184;4.476;2023-06-14T03:43:14;7.10;;;3.60;;
44810;SDS011;30526;52.184;4.476;2023-06-14T03:45:40;9.20;;;4.47;;
44810;SDS011;30526;52.184;4.476;2023-06-14T03:48:09;7.90;;;4.00;;
44810;SDS011;30526;52.184;4.476;2023-06-14T03:50:36;8.25;;;3.40;;
44810;SDS011;30526;52.184;4.476;2023-06-14T03:53:05;12.60;;;4.18;;
44810;SDS011;30526;52.184;4.476;2023-06-14T03:55:34;7.45;;;3.83;;
44810;SDS011;30526;52.184;4.476;2023-06-14T03:58:00;5.88;;;3.90;;
44810;SDS011;30526;52.184;4.476;2023-06-14T04:00:27;8.70;;;4.20;;
44810;SDS011;30526;52.184;4.476;2023-06-14T04:02:56;10.05;;;3.95;;
44810;SDS011;30526;52.184;4.476;2023-06-14T04:05:22;8.18;;;4.03;;
44810;SDS011;30526;52.184;4.476;2023-06-14T04:07:51;10.15;;;3.72;;
44810;SDS011;30526;52.184;4.476;2023-06-14T04:10:21;7.30;;;3.60;;
44810;SDS011;30526;52.184;4.476;2023-06-14T04:12:47;9.30;;;4.47;;
44810;SDS011;30526;52.184;4.476;2023-06-14T04:15:16;5.60;;;3.78;;
44810;SDS011;30526;52.184;4.476;2023-06-14T04:17:43;13.93;;;3.90;;
44810;SDS011;30526;52.184;4.476;2023-06-14T04:20:09;8.60;;;3.83;;
44810;SDS011;30526;52.184;4.476;2023-06-14T04:22:36;4.00;;;3.10;;
44810;SDS011;30526;52.184;4.476;2023-06-14T04:25:02;6.43;;;3.92;;
44810;SDS011;30526;52.184;4.476;2023-06-14T04:27:31;6.95;;;3.92;;
44810;SDS011;30526;52.184;4.476;2023-06-14T04:30:01;11.48;;;3.53;;
44810;SDS011;30526;52.184;4.476;2023-06-14T04:32:28;4.25;;;2.85;;
44810;SDS011;30526;52.184;4.476;2023-06-14T04:34:58;7.30;;;4.20;;
44810;SDS011;30526;52.184;4.476;2023-06-14T04:37:27;9.00;;;3.65;;
44810;SDS011;30526;52.184;4.476;2023-06-14T04:39:54;5.22;;;3.88;;
44810;SDS011;30526;52.184;4.476;2023-06-14T04:42:22;7.22;;;4.00;;
44810;SDS011;30526;52.184;4.476;2023-06-14T04:44:50;8.32;;;3.78;;
44810;SDS011;30526;52.184;4.476;2023-06-14T04:47:20;8.13;;;3.47;;
44810;SDS011;30526;52.184;4.476;2023-06-14T04:49:48;6.45;;;3.92;;
44810;SDS011;30526;52.184;4.476;2023-06-14T04:52:15;8.25;;;3.60;;
44810;SDS011;30526;52.184;4.476;2023-06-14T04:54:42;12.10;;;4.07;;
44810;SDS011;30526;52.184;4.476;2023-06-14T04:57:10;7.32;;;3.92;;
44810;SDS011;30526;52.184;4.476;2023-06-14T04:59:42;7.55;;;3.72;;
44810;SDS011;30526;52.184;4.476;2023-06-14T05:02:09;6.45;;;3.55;;
44810;SDS011;30526;52.184;4.476;2023-06-14T05:04:36;5.63;;;3.50;;
44810;SDS011;30526;52.184;4.476;2023-06-14T05:07:06;6.10;;;3.58;;
44810;SDS011;30526;52.184;4.476;2023-06-14T05:09:33;15.77;;;4.85;;
44810;SDS011;30526;52.184;4.476;2023-06-14T05:11:59;9.93;;;3.65;;
44810;SDS011;30526;52.184;4.476;2023-06-14T05:14:25;10.35;;;3.63;;
44810;SDS011;30526;52.184;4.476;2023-06-14T05:16:51;8.68;;;3.90;;
44810;SDS011;30526;52.184;4.476;2023-06-14T05:19:18;6.38;;;3.63;;
44810;SDS011;30526;52.184;4.476;2023-06-14T05:21:45;12.07;;;3.63;;
44810;SDS011;30526;52.184;4.476;2023-06-14T05:24:13;14.75;;;4.03;;
44810;SDS011;30526;52.184;4.476;2023-06-14T05:26:39;9.93;;;3.95;;
44810;SDS011;30526;52.184;4.476;2023-06-14T05:29:05;7.43;;;3.70;;
44810;SDS011;30526;52.184;4.476;2023-06-14T05:31:31;7.97;;;3.63;;
44810;SDS011;30526;52.184;4.476;2023-06-14T05:33:58;6.95;;;3.88;;
44810;SDS011;30526;52.184;4.476;2023-06-14T05:36:24;7.83;;;4.00;;
44810;SDS011;30526;52.184;4.476;2023-06-14T05:41:57;4.32;;;2.70;;
44810;SDS011;30526;52.184;4.476;2023-06-14T05:44:23;8.13;;;3.70;;
44810;SDS011;30526;52.184;4.476;2023-06-14T05:46:53;7.60;;;3.38;;
44810;SDS011;30526;52.184;4.476;2023-06-14T05:49:39;9.88;;;3.53;;
44810;SDS011;30526;52.184;4.476;2023-06-14T05:52:07;12.27;;;3.65;;
44810;SDS011;30526;52.184;4.476;2023-06-14T05:54:38;9.82;;;3.40;;
44810;SDS011;30526;52.184;4.476;2023-06-14T05:57:16;9.02;;;3.33;;
44810;SDS011;30526;52.184;4.476;2023-06-14T05:59:49;10.30;;;4.05;;
44810;SDS011;30526;52.184;4.476;2023-06-14T06:02:16;6.53;;;3.67;;
44810;SDS011;30526;52.184;4.476;2023-06-14T06:04:43;7.10;;;3.83;;
44810;SDS011;30526;52.184;4.476;2023-06-14T06:07:10;2.90;;;2.40;;
44810;SDS011;30526;52.184;4.476;2023-06-14T06:09:37;14.57;;;3.00;;
44810;SDS011;30526;52.184;4.476;2023-06-14T06:12:09;5.97;;;3.38;;
44810;SDS011;30526;52.184;4.476;2023-06-14T06:14:36;4.75;;;3.88;;
44810;SDS011;30526;52.184;4.476;2023-06-14T06:17:31;4.20;;;3.33;;
44810;SDS011;30526;52.184;4.476;2023-06-14T06:19:57;8.40;;;2.88;;
44810;SDS011;30526;52.184;4.476;2023-06-14T06:22:24;4.13;;;2.20;;
44810;SDS011;30526;52.184;4.476;2023-06-14T06:24:55;12.63;;;4.10;;
44810;SDS011;30526;52.184;4.476;2023-06-14T06:27:40;8.85;;;3.97;;
44810;SDS011;30526;52.184;4.476;2023-06-14T06:30:19;6.23;;;3.67;;
44810;SDS011;30526;52.184;4.476;2023-06-14T06:32:55;12.70;;;3.40;;
44810;SDS011;30526;52.184;4.476;2023-06-14T06:35:25;5.00;;;3.42;;
44810;SDS011;30526;52.184;4.476;2023-06-14T06:38:00;5.20;;;3.83;;
44810;SDS011;30526;52.184;4.476;2023-06-14T06:40:31;4.20;;;3.53;;
44810;SDS011;30526;52.184;4.476;2023-06-14T06:42:58;4.00;;;3.45;;
44810;SDS011;30526;52.184;4.476;2023-06-14T06:45:25;5.93;;;2.97;;
44810;SDS011;30526;52.184;4.476;2023-06-14T06:47:58;5.35;;;3.80;;
44810;SDS011;30526;52.184;4.476;2023-06-14T06:50:28;7.63;;;3.85;;
44810;SDS011;30526;52.184;4.476;2023-06-14T06:52:58;13.32;;;3.72;;
44810;SDS011;30526;52.184;4.476;2023-06-14T06:55:27;4.35;;;3.50;;
44810;SDS011;30526;52.184;4.476;2023-06-14T06:57:55;9.75;;;3.70;;
44810;SDS011;30526;52.184;4.476;2023-06-14T07:00:22;8.30;;;3.78;;
44810;SDS011;30526;52.184;4.476;2023-06-14T07:02:57;9.82;;;3.80;;
44810;SDS011;30526;52.184;4.476;2023-06-14T07:05:29;9.85;;;3.53;;
44810;SDS011;30526;52.184;4.476;2023-06-14T07:08:00;7.88;;;3.47;;
44810;SDS011;30526;52.184;4.476;2023-06-14T07:10:26;5.70;;;3.42;;
44810;SDS011;30526;52.184;4.476;2023-06-14T07:12:53;7.93;;;3.63;;
44810;SDS011;30526;52.184;4.476;2023-06-14T07:15:20;6.72;;;3.88;;
44810;SDS011;30526;52.184;4.476;2023-06-14T07:18:12;9.00;;;4.10;;
44810;SDS011;30526;52.184;4.476;2023-06-14T07:20:47;5.45;;;3.80;;
44810;SDS011;30526;52.184;4.476;2023-06-14T07:23:17;8.50;;;4.20;;
44810;SDS011;30526;52.184;4.476;2023-06-14T07:25:52;7.25;;;3.80;;
44810;SDS011;30526;52.184;4.476;2023-06-14T07:28:43;7.20;;;4.05;;
44810;SDS011;30526;52.184;4.476;2023-06-14T07:31:15;9.52;;;3.97;;
44810;SDS011;30526;52.184;4.476;2023-06-14T07:33:46;9.60;;;4.20;;
44810;SDS011;30526;52.184;4.476;2023-06-14T07:36:16;9.35;;;3.72;;
44810;SDS011;30526;52.184;4.476;2023-06-14T07:38:46;8.18;;;4.18;;
44810;SDS011;30526;52.184;4.476;2023-06-14T07:41:13;7.53;;;3.78;;
44810;SDS011;30526;52.184;4.476;2023-06-14T07:43:40;10.95;;;3.92;;
44810;SDS011;30526;52.184;4.476;2023-06-14T07:46:07;10.02;;;4.05;;
44810;SDS011;30526;52.184;4.476;2023-06-14T07:48:39;4.90;;;4.00;;
44810;SDS011;30526;52.184;4.476;2023-06-14T07:51:25;9.90;;;4.40;;
44810;SDS011;30526;52.184;4.476;2023-06-14T07:53:52;7.97;;;3.58;;
44810;SDS011;30526;52.184;4.476;2023-06-14T07:56:37;7.28;;;3.30;;
44810;SDS011;30526;52.184;4.476;2023-06-14T07:59:03;9.77;;;3.53;;
44810;SDS011;30526;52.184;4.476;2023-06-14T08:01:33;6.88;;;3.75;;
44810;SDS011;30526;52.184;4.476;2023-06-14T08:04:04;5.95;;;3.80;;
44810;SDS011;30526;52.184;4.476;2023-06-14T08:06:37;6.35;;;3.50;;
44810;SDS011;30526;52.184;4.476;2023-06-14T08:09:16;11.25;;;3.55;;
44810;SDS011;30526;52.184;4.476;2023-06-14T08:11:57;5.47;;;3.70;;
44810;SDS011;30526;52.184;4.476;2023-06-14T08:14:24;9.82;;;4.43;;
44810;SDS011;30526;52.184;4.476;2023-06-14T08:16:50;7.55;;;3.50;;
44810;SDS011;30526;52.184;4.476;2023-06-14T08:19:23;9.32;;;2.97;;
44810;SDS011;30526;52.184;4.476;2023-06-14T08:22:03;6.32;;;4.35;;
44810;SDS011;30526;52.184;4.476;2023-06-14T08:24:30;8.57;;;3.00;;
44810;SDS011;30526;52.184;4.476;2023-06-14T08:26:56;7.87;;;3.23;;
44810;SDS011;30526;52.184;4.476;2023-06-14T08:29:29;9.43;;;3.92;;
44810;SDS011;30526;52.184;4.476;2023-06-14T08:31:59;4.53;;;3.97;;
44810;SDS011;30526;52.184;4.476;2023-06-14T08:34:27;8.57;;;4.50;;
44810;SDS011;30526;52.184;4.476;2023-06-14T08:37:05;14.50;;;4.18;;
44810;SDS011;30526;52.184;4.476;2023-06-14T08:39:35;4.82;;;3.92;;
44810;SDS011;30526;52.184;4.476;2023-06-14T08:42:07;6.20;;;3.90;;
44810;SDS011;30526;52.184;4.476;2023-06-14T08:44:44;9.52;;;4.07;;
44810;SDS011;30526;52.184;4.476;2023-06-14T08:47:20;7.75;;;3.75;;
44810;SDS011;30526;52.184;4.476;2023-06-14T08:49:56;5.53;;;3.33;;
44810;SDS011;30526;52.184;4.476;2023-06-14T08:52:24;7.65;;;3.53;;
44810;SDS011;30526;52.184;4.476;2023-06-14T08:54:55;7.65;;;3.90;;
44810;SDS011;30526;52.184;4.476;2023-06-14T08:57:38;10.93;;;4.30;;
44810;SDS011;30526;52.184;4.476;2023-06-14T09:00:12;6.70;;;3.53;;
44810;SDS011;30526;52.184;4.476;2023-06-14T09:02:39;8.82;;;3.50;;
44810;SDS011;30526;52.184;4.476;2023-06-14T09:05:14;10.48;;;3.30;;
44810;SDS011;30526;52.184;4.476;2023-06-14T09:07:44;5.13;;;3.20;;
44810;SDS011;30526;52.184;4.476;2023-06-14T09:10:16;6.85;;;3.65;;
44810;SDS011;30526;52.184;4.476;2023-06-14T09:12:55;5.30;;;4.00;;
44810;SDS011;30526;52.184;4.476;2023-06-14T09:15:25;5.28;;;3.90;;
44810;SDS011;30526;52.184;4.476;2023-06-14T09:17:52;10.38;;;3.88;;
44810;SDS011;30526;52.184;4.476;2023-06-14T09:20:25;10.35;;;4.35;;
44810;SDS011;30526;52.184;4.476;2023-06-14T09:23:04;7.57;;;4.22;;
44810;SDS011;30526;52.184;4.476;2023-06-14T09:25:43;7.80;;;4.07;;
44810;SDS011;30526;52.184;4.476;2023-06-14T09:28:36;4.05;;;2.75;;
44810;SDS011;30526;52.184;4.476;2023-06-14T09:31:07;7.55;;;3.38;;
44810;SDS011;30526;52.184;4.476;2023-06-14T09:33:35;4.95;;;3.80;;
44810;SDS011;30526;52.184;4.476;2023-06-14T09:36:18;7.43;;;3.25;;
44810;SDS011;30526;52.184;4.476;2023-06-14T09:38:57;8.27;;;3.75;;
44810;SDS011;30526;52.184;4.476;2023-06-14T09:44:33;8.10;;;3.70;;
44810;SDS011;30526;52.184;4.476;2023-06-14T09:47:08;6.55;;;3.60;;
44810;SDS011;30526;52.184;4.476;2023-06-14T09:49:39;5.72;;;3.28;;
44810;SDS011;30526;52.184;4.476;2023-06-14T09:52:06;7.80;;;2.50;;
44810;SDS011;30526;52.184;4.476;2023-06-14T09:54:45;4.00;;;2.45;;
44810;SDS011;30526;52.184;4.476;2023-06-14T09:57:24;4.70;;;3.20;;
44810;SDS011;30526;52.184;4.476;2023-06-14T10:00:07;6.65;;;3.47;;
44810;SDS011;30526;52.184;4.476;2023-06-14T10:02:58;7.47;;;3.33;;
44810;SDS011;30526;52.184;4.476;2023-06-14T10:08:18;6.07;;;2.90;;
44810;SDS011;30526;52.184;4.476;2023-06-14T10:11:24;3.83;;;3.25;;
44810;SDS011;30526;52.184;4.476;2023-06-14T10:14:06;5.00;;;2.92;;
44810;SDS011;30526;52.184;4.476;2023-06-14T10:19:33;4.93;;;2.85;;
44810;SDS011;30526;52.184;4.476;2023-06-14T10:24:35;6.53;;;2.90;;
44810;SDS011;30526;52.184;4.476;2023-06-14T10:27:16;3.53;;;2.92;;
44810;SDS011;30526;52.184;4.476;2023-06-14T10:30:02;4.60;;;2.10;;
44810;SDS011;30526;52.184;4.476;2023-06-14T10:35:03;7.22;;;3.30;;
44810;SDS011;30526;52.184;4.476;2023-06-14T10:37:45;4.25;;;2.75;;
44810;SDS011;30526;52.184;4.476;2023-06-14T10:40:46;10.40;;;2.47;;
44810;SDS011;30526;52.184;4.476;2023-06-14T10:43:22;3.08;;;2.10;;
44810;SDS011;30526;52.184;4.476;2023-06-14T10:48:42;3.65;;;1.92;;
44810;SDS011;30526;52.184;4.476;2023-06-14T10:51:21;3.88;;;2.00;;
44810;SDS011;30526;52.184;4.476;2023-06-14T10:54:03;5.07;;;2.72;;
44810;SDS011;30526;52.184;4.476;2023-06-14T10:56:58;3.10;;;2.42;;
44810;SDS011;30526;52.184;4.476;2023-06-14T10:59:43;5.20;;;3.10;;
44810;SDS011;30526;52.184;4.476;2023-06-14T11:05:15;3.97;;;2.33;;
44810;SDS011;30526;52.184;4.476;2023-06-14T11:10:41;3.90;;;1.85;;
44810;SDS011;30526;52.184;4.476;2023-06-14T11:13:12;2.70;;;1.97;;
44810;SDS011;30526;52.184;4.476;2023-06-14T11:15:43;5.35;;;1.95;;
44810;SDS011;30526;52.184;4.476;2023-06-14T11:18:10;4.82;;;2.08;;
44810;SDS011;30526;52.184;4.476;2023-06-14T11:20:40;3.22;;;2.10;;
44810;SDS011;30526;52.184;4.476;2023-06-14T11:23:07;3.33;;;2.05;;
44810;SDS011;30526;52.184;4.476;2023-06-14T11:25:58;7.70;;;1.85;;
44810;SDS011;30526;52.184;4.476;2023-06-14T11:28:24;2.83;;;1.85;;
44810;SDS011;30526;52.184;4.476;2023-06-14T11:31:03;4.53;;;1.90;;
44810;SDS011;30526;52.184;4.476;2023-06-14T11:33:30;4.05;;;1.90;;
44810;SDS011;30526;52.184;4.476;2023-06-14T11:35:56;2.28;;;1.80;;
44810;SDS011;30526;52.184;4.476;2023-06-14T11:38:23;4.47;;;1.85;;
44810;SDS011;30526;52.184;4.476;2023-06-14T11:41:03;2.70;;;1.85;;
44810;SDS011;30526;52.184;4.476;2023-06-14T11:43:29;3.17;;;2.22;;
44810;SDS011;30526;52.184;4.476;2023-06-14T11:46:00;2.03;;;1.70;;
44810;SDS011;30526;52.184;4.476;2023-06-14T11:48:37;3.17;;;1.50;;
44810;SDS011;30526;52.184;4.476;2023-06-14T11:51:03;6.85;;;1.80;;
44810;SDS011;30526;52.184;4.476;2023-06-14T11:53:29;2.15;;;1.50;;
44810;SDS011;30526;52.184;4.476;2023-06-14T11:55:56;7.70;;;1.70;;
44810;SDS011;30526;52.184;4.476;2023-06-14T12:00:49;3.83;;;1.88;;
44810;SDS011;30526;52.184;4.476;2023-06-14T12:03:16;3.00;;;1.83;;
44810;SDS011;30526;52.184;4.476;2023-06-14T12:05:42;2.25;;;1.88;;
44810;SDS011;30526;52.184;4.476;2023-06-14T12:08:12;4.70;;;1.80;;
44810;SDS011;30526;52.184;4.476;2023-06-14T12:10:42;3.72;;;2.05;;
44810;SDS011;30526;52.184;4.476;2023-06-14T12:13:09;4.40;;;1.42;;
44810;SDS011;30526;52.184;4.476;2023-06-14T12:15:36;3.40;;;1.80;;
44810;SDS011;30526;52.184;4.476;2023-06-14T12:18:05;1.88;;;1.60;;
44810;SDS011;30526;52.184;4.476;2023-06-14T12:20:33;3.80;;;1.73;;
44810;SDS011;30526;52.184;4.476;2023-06-14T12:23:03;1.80;;;1.45;;
44810;SDS011;30526;52.184;4.476;2023-06-14T12:25:33;2.03;;;1.67;;
44810;SDS011;30526;52.184;4.476;2023-06-14T12:28:04;4.45;;;1.70;;
44810;SDS011;30526;52.184;4.476;2023-06-14T12:30:31;3.10;;;1.90;;
44810;SDS011;30526;52.184;4.476;2023-06-14T12:32:57;3.13;;;1.80;;
44810;SDS011;30526;52.184;4.476;2023-06-14T12:35:23;2.05;;;1.75;;
44810;SDS011;30526;52.184;4.476;2023-06-14T12:37:50;6.30;;;3.17;;
44810;SDS011;30526;52.184;4.476;2023-06-14T12:40:20;1.70;;;1.60;;
44810;SDS011;30526;52.184;4.476;2023-06-14T12:42:46;3.65;;;1.77;;
44810;SDS011;30526;52.184;4.476;2023-06-14T12:45:13;3.55;;;1.70;;
44810;SDS011;30526;52.184;4.476;2023-06-14T12:47:39;2.97;;;1.88;;
44810;SDS011;30526;52.184;4.476;2023-06-14T12:50:06;3.75;;;2.17;;
44810;SDS011;30526;52.184;4.476;2023-06-14T12:52:32;1.90;;;1.80;;
44810;SDS011;30526;52.184;4.476;2023-06-14T12:55:04;2.22;;;2.03;;
44810;SDS011;30526;52.184;4.476;2023-06-14T12:57:31;2.92;;;1.70;;
44810;SDS011;30526;52.184;4.476;2023-06-14T12:59:59;3.38;;;1.85;;
44810;SDS011;30526;52.184;4.476;2023-06-14T13:02:25;2.30;;;2.03;;
44810;SDS011;30526;52.184;4.476;2023-06-14T13:04:52;5.97;;;2.40;;
44810;SDS011;30526;52.184;4.476;2023-06-14T13:07:18;2.70;;;1.95;;
44810;SDS011;30526;52.184;4.476;2023-06-14T13:09:44;1.95;;;1.80;;
44810;SDS011;30526;52.184;4.476;2023-06-14T13:12:11;3.70;;;2.00;;
44810;SDS011;30526;52.184;4.476;2023-06-14T13:14:38;5.95;;;1.85;;
44810;SDS011;30526;52.184;4.476;2023-06-14T13:17:06;3.78;;;2.30;;
44810;SDS011;30526;52.184;4.476;2023-06-14T13:19:32;3.47;;;2.00;;
44810;SDS011;30526;52.184;4.476;2023-06-14T13:21:58;2.53;;;1.70;;
44810;SDS011;30526;52.184;4.476;2023-06-14T13:24:25;3.85;;;2.00;;
44810;SDS011;30526;52.184;4.476;2023-06-14T13:26:51;4.35;;;1.83;;
44810;SDS011;30526;52.184;4.476;2023-06-14T13:29:17;2.22;;;2.03;;
44810;SDS011;30526;52.184;4.476;2023-06-14T13:31:44;3.97;;;1.95;;
44810;SDS011;30526;52.184;4.476;2023-06-14T13:34:10;2.92;;;1.92;;
44810;SDS011;30526;52.184;4.476;2023-06-14T13:36:37;2.15;;;2.00;;
44810;SDS011;30526;52.184;4.476;2023-06-14T13:39:03;2.30;;;1.90;;
44810;SDS011;30526;52.184;4.476;2023-06-14T13:41:31;6.85;;;2.15;;
44810;SDS011;30526;52.184;4.476;2023-06-14T13:43:59;4.03;;;2.17;;
44810;SDS011;30526;52.184;4.476;2023-06-14T13:46:29;3.63;;;2.10;;
44810;SDS011;30526;52.184;4.476;2023-06-14T13:48:56;2.28;;;1.83;;
44810;SDS011;30526;52.184;4.476;2023-06-14T13:51:23;5.03;;;1.70;;
44810;SDS011;30526;52.184;4.476;2023-06-14T13:53:49;3.75;;;1.70;;
44810;SDS011;30526;52.184;4.476;2023-06-14T13:56:16;6.25;;;1.88;;
44810;SDS011;30526;52.184;4.476;2023-06-14T13:58:42;4.63;;;1.90;;
44810;SDS011;30526;52.184;4.476;2023-06-14T14:01:08;2.67;;;1.70;;
44810;SDS011;30526;52.184;4.476;2023-06-14T14:03:36;3.40;;;2.00;;
44810;SDS011;30526;52.184;4.476;2023-06-14T14:06:03;2.10;;;1.63;;
44810;SDS011;30526;52.184;4.476;2023-06-14T14:08:29;4.25;;;1.85;;
44810;SDS011;30526;52.184;4.476;2023-06-14T14:10:56;5.18;;;1.77;;
44810;SDS011;30526;52.184;4.476;2023-06-14T14:13:22;1.67;;;1.55;;
44810;SDS011;30526;52.184;4.476;2023-06-14T14:15:50;5.18;;;1.52;;
44810;SDS011;30526;52.184;4.476;2023-06-14T14:18:16;3.03;;;1.80;;
44810;SDS011;30526;52.184;4.476;2023-06-14T14:20:43;3.03;;;1.50;;
44810;SDS011;30526;52.184;4.476;2023-06-14T14:23:09;3.83;;;1.60;;
44810;SDS011;30526;52.184;4.476;2023-06-14T14:25:35;3.50;;;1.58;;
44810;SDS011;30526;52.184;4.476;2023-06-14T14:28:02;4.72;;;1.85;;
44810;SDS011;30526;52.184;4.476;2023-06-14T14:30:31;2.28;;;1.70;;
44810;SDS011;30526;52.184;4.476;2023-06-14T14:32:58;2.78;;;1.58;;
44810;SDS011;30526;52.184;4.476;2023-06-14T14:35:24;2.70;;;1.77;;
44810;SDS011;30526;52.184;4.476;2023-06-14T14:37:55;4.22;;;1.80;;
44810;SDS011;30526;52.184;4.476;2023-06-14T14:40:21;2.63;;;1.50;;
44810;SDS011;30526;52.184;4.476;2023-06-14T14:42:48;1.85;;;1.60;;
44810;SDS011;30526;52.184;4.476;2023-06-14T14:45:14;3.17;;;1.80;;
44810;SDS011;30526;52.184;4.476;2023-06-14T14:47:40;3.03;;;1.55;;
44810;SDS011;30526;52.184;4.476;2023-06-14T14:50:06;4.07;;;1.67;;
44810;SDS011;30526;52.184;4.476;2023-06-14T14:52:36;5.03;;;1.88;;
44810;SDS011;30526;52.184;4.476;2023-06-14T14:55:02;2.67;;;1.73;;
44810;SDS011;30526;52.184;4.476;2023-06-14T14:57:29;2.65;;;1.70;;
44810;SDS011;30526;52.184;4.476;2023-06-14T14:59:56;1.88;;;1.63;;
44810;SDS011;30526;52.184;4.476;2023-06-14T15:02:22;2.47;;;1.52;;
44810;SDS011;30526;52.184;4.476;2023-06-14T15:04:49;2.78;;;1.65;;
44810;SDS011;30526;52.184;4.476;2023-06-14T15:07:15;5.43;;;1.48;;
44810;SDS011;30526;52.184;4.476;2023-06-14T15:09:41;4.03;;;1.65;;
44810;SDS011;30526;52.184;4.476;2023-06-14T15:12:08;1.55;;;1.40;;
44810;SDS011;30526;52.184;4.476;2023-06-14T15:14:39;4.43;;;1.70;;
44810;SDS011;30526;52.184;4.476;2023-06-14T15:17:05;2.38;;;1.83;;
44810;SDS011;30526;52.184;4.476;2023-06-14T15:19:32;3.40;;;1.77;;
44810;SDS011;30526;52.184;4.476;2023-06-14T15:22:01;2.90;;;1.63;;
44810;SDS011;30526;52.184;4.476;2023-06-14T15:24:28;4.35;;;2.00;;
44810;SDS011;30526;52.184;4.476;2023-06-14T15:26:56;4.03;;;1.88;;
44810;SDS011;30526;52.184;4.476;2023-06-14T15:29:22;5.05;;;1.70;;